Thursday, October 18, 2018, 9:44 AM EDT
Back to Local

KWWD, Wildwood, Cape May County Airport

Location: Villas, NJ, United States Lat: 39.017
Local Time: 9:44 AM EDT (13:44 GMT) Lon: -74.917
Time Zone: US/Eastern Elev: 22 ft

Show me the last for .
Show Decoded

2018-10-18 08:55 METAR KWWD 181255Z AUTO 35011G18KT 10SM SCT055 09/M01 A3040 RMK AO2 SLP295
                 T00941011 =
2018-10-18 07:55 METAR KWWD 181155Z AUTO 32010G18KT 10SM CLR 09/M01 A3037 RMK AO2 SLP287
                 T00891011 10106 20083 53022 =
2018-10-18 06:55 METAR KWWD 181055Z AUTO 34008G15KT 10SM CLR 08/M02 A3034 RMK AO2 SLP278
                 T00831022 =
2018-10-18 05:55 METAR KWWD 180955Z AUTO 32008G15KT 280V360 10SM CLR 09/M02 A3033 RMK AO2 SLP274
                 T00891022 =
2018-10-18 04:55 METAR KWWD 180855Z AUTO 34011G15KT 10SM CLR 09/M02 A3031 RMK AO2 SLP266
                 T00891022 53025 =
2018-10-18 03:55 METAR KWWD 180755Z AUTO 31010G24KT 10SM CLR 09/M02 A3028 RMK AO2 SLP256
                 T00941017 =
2018-10-18 02:55 METAR KWWD 180655Z AUTO 33010G18KT 10SM FEW075 10/00 A3025 RMK AO2 PK WND
                 32026/0640 SLP247 T01000000 =
2018-10-18 01:55 METAR KWWD 180555Z AUTO 34009G14KT 10SM FEW080 11/02 A3024 RMK AO2 SLP241
                 T01060022 10156 20106 53023 =
2018-10-18 00:55 METAR KWWD 180455Z AUTO 34012G21KT 10SM BKN085 12/02 A3021 RMK AO2 SLP232
                 T01170017 401830117 =
2018-10-17 23:55 METAR KWWD 180355Z AUTO 34011G21KT 10SM BKN085 13/02 A3019 RMK AO2 SLP226
                 T01280022 =
2018-10-17 22:55 METAR KWWD 180255Z AUTO 34012G18KT 10SM SCT090 13/03 A3017 RMK AO2 SLP217
                 T01330028 53033 =
2018-10-17 21:55 METAR KWWD 180155Z AUTO 32010G17KT 10SM CLR 14/04 A3013 RMK AO2 SLP207 T01390039
                 =
2018-10-17 20:55 METAR KWWD 180055Z AUTO 34007KT 10SM CLR 14/04 A3010 RMK AO2 SLP195 T01440039 =
2018-10-17 19:55 METAR KWWD 172355Z AUTO VRB06KT 10SM CLR 16/03 A3007 RMK AO2 SLP185 T01560033
                 10183 20156 53030 =
2018-10-17 18:55 METAR KWWD 172255Z AUTO 30011G19KT 10SM SCT080 18/03 A3003 RMK AO2 SLP172
                 T01780033 =
2018-10-17 17:55 METAR KWWD 172155Z AUTO 27011KT 10SM CLR 17/06 A2999 RMK AO2 SLP159 T01720061 =
2018-10-17 16:55 METAR KWWD 172055Z AUTO 27015G20KT 10SM CLR 18/05 A2998 RMK AO2 SLP154 T01780050
                 55006 =
2018-10-17 15:55 METAR KWWD 171955Z AUTO 27012G20KT 10SM CLR 18/05 A2997 RMK AO2 SLP152 T01780050
                 =
2018-10-17 14:55 METAR KWWD 171855Z AUTO 28011G19KT 10SM CLR 18/05 A2999 RMK AO2 SLP156 T01780050
                 =
2018-10-17 13:55 METAR KWWD 171755Z AUTO 29013G21KT 10SM CLR 18/05 A3000 RMK AO2 SLP160 T01780050
                 10178 20144 58021 =
2018-10-17 12:55 METAR KWWD 171655Z AUTO 27011G20KT 10SM CLR 17/04 A3002 RMK AO2 SLP169 T01720044
                 =
2018-10-17 11:55 METAR KWWD 171555Z AUTO 28013G18KT 10SM CLR 17/03 A3005 RMK AO2 SLP178 T01670028
                 =
2018-10-17 10:55 METAR KWWD 171455Z AUTO 28010G18KT 10SM CLR 16/04 A3006 RMK AO2 SLP181 T01560039
                 58000 =
2018-10-17 09:55 METAR KWWD 171355Z AUTO 29009G17KT 10SM CLR 14/04 A3006 RMK AO2 SLP182 T01440039
                 =

Support USWX by starting your Amazon purchase here.